sensor_id;sensor_type;location;lat;lon;timestamp;temperature;humidity
60353;DHT22;46196;52.970;6.954;2023-03-13T00:04:02;9.00;99.90
60353;DHT22;46196;52.970;6.954;2023-03-13T00:06:31;9.00;99.90
60353;DHT22;46196;52.970;6.954;2023-03-13T00:08:57;9.00;99.90
60353;DHT22;46196;52.970;6.954;2023-03-13T00:11:25;9.00;99.90
60353;DHT22;46196;52.970;6.954;2023-03-13T00:13:55;9.00;99.90
60353;DHT22;46196;52.970;6.954;2023-03-13T00:16:22;8.90;99.90
60353;DHT22;46196;52.970;6.954;2023-03-13T00:18:50;8.90;99.90
60353;DHT22;46196;52.970;6.954;2023-03-13T00:21:18;8.90;99.90
60353;DHT22;46196;52.970;6.954;2023-03-13T00:23:44;8.90;99.90
60353;DHT22;46196;52.970;6.954;2023-03-13T00:26:12;8.90;99.90
60353;DHT22;46196;52.970;6.954;2023-03-13T00:28:39;8.90;99.90
60353;DHT22;46196;52.970;6.954;2023-03-13T00:31:14;8.90;99.90
60353;DHT22;46196;52.970;6.954;2023-03-13T00:33:45;8.90;99.90
60353;DHT22;46196;52.970;6.954;2023-03-13T00:36:27;8.80;99.90
60353;DHT22;46196;52.970;6.954;2023-03-13T00:38:54;8.80;99.90
60353;DHT22;46196;52.970;6.954;2023-03-13T00:41:22;8.80;99.90
60353;DHT22;46196;52.970;6.954;2023-03-13T00:43:48;8.80;99.90
60353;DHT22;46196;52.970;6.954;2023-03-13T00:46:17;8.80;99.90
60353;DHT22;46196;52.970;6.954;2023-03-13T00:48:44;8.80;99.90
60353;DHT22;46196;52.970;6.954;2023-03-13T00:51:10;8.80;99.90
60353;DHT22;46196;52.970;6.954;2023-03-13T00:53:36;8.70;99.90
60353;DHT22;46196;52.970;6.954;2023-03-13T00:58:32;8.70;99.90
60353;DHT22;46196;52.970;6.954;2023-03-13T01:01:13;8.70;99.90
60353;DHT22;46196;52.970;6.954;2023-03-13T01:03:40;8.70;99.90
60353;DHT22;46196;52.970;6.954;2023-03-13T01:06:09;8.70;99.90
60353;DHT22;46196;52.970;6.954;2023-03-13T01:08:36;8.70;99.90
60353;DHT22;46196;52.970;6.954;2023-03-13T01:11:10;8.70;99.90
60353;DHT22;46196;52.970;6.954;2023-03-13T01:13:36;8.70;99.90
60353;DHT22;46196;52.970;6.954;2023-03-13T01:16:12;8.70;99.90
60353;DHT22;46196;52.970;6.954;2023-03-13T01:18:39;8.60;99.90
60353;DHT22;46196;52.970;6.954;2023-03-13T01:21:06;8.60;99.90
60353;DHT22;46196;52.970;6.954;2023-03-13T01:23:32;8.70;99.90
60353;DHT22;46196;52.970;6.954;2023-03-13T01:25:58;8.70;99.90
60353;DHT22;46196;52.970;6.954;2023-03-13T01:28:24;8.70;99.90
60353;DHT22;46196;52.970;6.954;2023-03-13T01:30:51;8.60;99.90
60353;DHT22;46196;52.970;6.954;2023-03-13T01:33:17;8.60;99.90
60353;DHT22;46196;52.970;6.954;2023-03-13T01:35:44;8.60;99.90
60353;DHT22;46196;52.970;6.954;2023-03-13T01:38:10;8.60;99.90
60353;DHT22;46196;52.970;6.954;2023-03-13T01:40:41;8.60;99.90
60353;DHT22;46196;52.970;6.954;2023-03-13T01:43:26;8.60;99.90
60353;DHT22;46196;52.970;6.954;2023-03-13T01:51:38;8.60;99.90
60353;DHT22;46196;52.970;6.954;2023-03-13T01:54:08;8.60;99.90
60353;DHT22;46196;52.970;6.954;2023-03-13T01:59:14;8.60;99.90
60353;DHT22;46196;52.970;6.954;2023-03-13T02:01:41;8.70;99.90
60353;DHT22;46196;52.970;6.954;2023-03-13T02:04:09;8.60;99.90
60353;DHT22;46196;52.970;6.954;2023-03-13T02:06:37;8.60;99.90
60353;DHT22;46196;52.970;6.954;2023-03-13T02:09:17;8.70;99.90
60353;DHT22;46196;52.970;6.954;2023-03-13T02:11:58;8.70;99.90
60353;DHT22;46196;52.970;6.954;2023-03-13T02:14:27;8.70;99.90
60353;DHT22;46196;52.970;6.954;2023-03-13T02:16:55;8.70;99.90
60353;DHT22;46196;52.970;6.954;2023-03-13T02:19:34;8.70;99.90
60353;DHT22;46196;52.970;6.954;2023-03-13T02:27:31;8.80;99.90
60353;DHT22;46196;52.970;6.954;2023-03-13T02:29:57;8.80;99.90
60353;DHT22;46196;52.970;6.954;2023-03-13T02:32:25;8.90;99.90
60353;DHT22;46196;52.970;6.954;2023-03-13T02:34:55;8.80;99.90
60353;DHT22;46196;52.970;6.954;2023-03-13T02:37:20;8.80;99.90
60353;DHT22;46196;52.970;6.954;2023-03-13T02:39:49;8.80;99.90
60353;DHT22;46196;52.970;6.954;2023-03-13T02:42:17;8.80;99.90
60353;DHT22;46196;52.970;6.954;2023-03-13T02:44:45;8.80;99.90
60353;DHT22;46196;52.970;6.954;2023-03-13T02:47:16;8.80;99.90
60353;DHT22;46196;52.970;6.954;2023-03-13T02:49:42;8.80;99.90
60353;DHT22;46196;52.970;6.954;2023-03-13T02:54:47;8.80;99.90
60353;DHT22;46196;52.970;6.954;2023-03-13T02:57:14;8.80;99.90
60353;DHT22;46196;52.970;6.954;2023-03-13T02:59:40;8.90;99.90
60353;DHT22;46196;52.970;6.954;2023-03-13T03:02:06;8.90;99.90
60353;DHT22;46196;52.970;6.954;2023-03-13T03:04:32;8.90;99.90
60353;DHT22;46196;52.970;6.954;2023-03-13T03:06:58;8.90;99.90
60353;DHT22;46196;52.970;6.954;2023-03-13T03:09:23;8.90;99.90
60353;DHT22;46196;52.970;6.954;2023-03-13T03:11:49;8.90;99.90
60353;DHT22;46196;52.970;6.954;2023-03-13T03:14:16;8.90;99.90
60353;DHT22;46196;52.970;6.954;2023-03-13T03:16:41;8.90;99.90
60353;DHT22;46196;52.970;6.954;2023-03-13T03:19:07;8.90;99.90
60353;DHT22;46196;52.970;6.954;2023-03-13T03:21:34;8.90;99.90
60353;DHT22;46196;52.970;6.954;2023-03-13T03:24:00;8.90;99.90
60353;DHT22;46196;52.970;6.954;2023-03-13T03:26:26;9.00;99.90
60353;DHT22;46196;52.970;6.954;2023-03-13T03:28:52;9.00;99.90
60353;DHT22;46196;52.970;6.954;2023-03-13T03:31:17;9.00;99.90
60353;DHT22;46196;52.970;6.954;2023-03-13T03:33:43;9.00;99.90
60353;DHT22;46196;52.970;6.954;2023-03-13T03:36:20;9.10;99.90
60353;DHT22;46196;52.970;6.954;2023-03-13T03:38:47;9.10;99.90
60353;DHT22;46196;52.970;6.954;2023-03-13T03:41:13;9.10;99.90
60353;DHT22;46196;52.970;6.954;2023-03-13T03:43:39;9.10;99.90
60353;DHT22;46196;52.970;6.954;2023-03-13T03:46:05;9.20;99.90
60353;DHT22;46196;52.970;6.954;2023-03-13T03:48:31;9.20;99.90
60353;DHT22;46196;52.970;6.954;2023-03-13T03:50:57;9.20;99.90
60353;DHT22;46196;52.970;6.954;2023-03-13T03:53:23;9.30;99.90
60353;DHT22;46196;52.970;6.954;2023-03-13T03:55:49;9.30;99.90
60353;DHT22;46196;52.970;6.954;2023-03-13T03:58:15;9.30;99.90
60353;DHT22;46196;52.970;6.954;2023-03-13T04:00:45;9.30;99.90
60353;DHT22;46196;52.970;6.954;2023-03-13T04:03:11;9.40;99.90
60353;DHT22;46196;52.970;6.954;2023-03-13T04:05:37;9.40;99.90
60353;DHT22;46196;52.970;6.954;2023-03-13T04:08:04;9.40;99.90
60353;DHT22;46196;52.970;6.954;2023-03-13T04:10:29;9.40;99.90
60353;DHT22;46196;52.970;6.954;2023-03-13T04:12:55;9.40;99.90
60353;DHT22;46196;52.970;6.954;2023-03-13T04:15:21;9.40;99.90
60353;DHT22;46196;52.970;6.954;2023-03-13T04:17:47;9.50;99.90
60353;DHT22;46196;52.970;6.954;2023-03-13T04:20:13;9.50;99.90
60353;DHT22;46196;52.970;6.954;2023-03-13T04:22:39;9.50;99.90
60353;DHT22;46196;52.970;6.954;2023-03-13T04:25:06;9.50;99.90
60353;DHT22;46196;52.970;6.954;2023-03-13T04:27:33;9.50;99.90
60353;DHT22;46196;52.970;6.954;2023-03-13T04:29:59;9.50;99.90
60353;DHT22;46196;52.970;6.954;2023-03-13T04:32:25;9.60;99.90
60353;DHT22;46196;52.970;6.954;2023-03-13T04:34:50;9.60;99.90
60353;DHT22;46196;52.970;6.954;2023-03-13T04:37:16;9.70;99.90
60353;DHT22;46196;52.970;6.954;2023-03-13T04:39:42;9.70;99.90
60353;DHT22;46196;52.970;6.954;2023-03-13T04:42:10;9.70;99.90
60353;DHT22;46196;52.970;6.954;2023-03-13T04:44:36;9.80;99.90
60353;DHT22;46196;52.970;6.954;2023-03-13T04:47:02;9.80;99.90
60353;DHT22;46196;52.970;6.954;2023-03-13T04:49:28;9.90;99.90
60353;DHT22;46196;52.970;6.954;2023-03-13T04:51:53;9.90;99.90
60353;DHT22;46196;52.970;6.954;2023-03-13T04:54:19;9.90;99.90
60353;DHT22;46196;52.970;6.954;2023-03-13T04:56:45;10.00;99.90
60353;DHT22;46196;52.970;6.954;2023-03-13T04:59:12;10.10;99.90
60353;DHT22;46196;52.970;6.954;2023-03-13T05:01:38;10.10;99.90
60353;DHT22;46196;52.970;6.954;2023-03-13T05:04:05;10.10;99.90
60353;DHT22;46196;52.970;6.954;2023-03-13T05:06:31;10.20;99.90
60353;DHT22;46196;52.970;6.954;2023-03-13T05:08:56;10.20;99.90
60353;DHT22;46196;52.970;6.954;2023-03-13T05:11:22;10.20;99.90
60353;DHT22;46196;52.970;6.954;2023-03-13T05:13:48;10.30;99.90
60353;DHT22;46196;52.970;6.954;2023-03-13T05:16:14;10.30;99.90
60353;DHT22;46196;52.970;6.954;2023-03-13T05:18:40;10.40;99.90
60353;DHT22;46196;52.970;6.954;2023-03-13T05:21:06;10.40;99.90
60353;DHT22;46196;52.970;6.954;2023-03-13T05:23:32;10.50;99.90
60353;DHT22;46196;52.970;6.954;2023-03-13T05:25:58;10.50;99.90
60353;DHT22;46196;52.970;6.954;2023-03-13T05:28:24;10.50;99.90
60353;DHT22;46196;52.970;6.954;2023-03-13T05:30:51;10.60;99.90
60353;DHT22;46196;52.970;6.954;2023-03-13T05:33:16;10.60;99.90
60353;DHT22;46196;52.970;6.954;2023-03-13T05:35:47;10.60;99.90
60353;DHT22;46196;52.970;6.954;2023-03-13T05:38:13;10.70;99.90
60353;DHT22;46196;52.970;6.954;2023-03-13T05:40:39;10.70;99.90
60353;DHT22;46196;52.970;6.954;2023-03-13T05:43:05;10.80;99.90
60353;DHT22;46196;52.970;6.954;2023-03-13T05:45:31;10.80;99.90
60353;DHT22;46196;52.970;6.954;2023-03-13T05:47:57;10.80;99.90
60353;DHT22;46196;52.970;6.954;2023-03-13T05:50:25;10.90;99.90
60353;DHT22;46196;52.970;6.954;2023-03-13T05:52:51;10.90;99.90
60353;DHT22;46196;52.970;6.954;2023-03-13T05:55:17;10.90;99.90
60353;DHT22;46196;52.970;6.954;2023-03-13T05:57:47;11.00;99.90
60353;DHT22;46196;52.970;6.954;2023-03-13T06:00:14;11.00;99.90
60353;DHT22;46196;52.970;6.954;2023-03-13T06:02:40;11.10;99.90
60353;DHT22;46196;52.970;6.954;2023-03-13T06:05:07;11.10;99.90
60353;DHT22;46196;52.970;6.954;2023-03-13T06:07:33;11.10;99.90
60353;DHT22;46196;52.970;6.954;2023-03-13T06:09:59;11.20;99.90
60353;DHT22;46196;52.970;6.954;2023-03-13T06:12:24;11.20;99.90
60353;DHT22;46196;52.970;6.954;2023-03-13T06:14:50;11.20;99.90
60353;DHT22;46196;52.970;6.954;2023-03-13T06:17:16;11.30;99.90
60353;DHT22;46196;52.970;6.954;2023-03-13T06:19:42;11.30;99.90
60353;DHT22;46196;52.970;6.954;2023-03-13T06:22:08;11.40;99.90
60353;DHT22;46196;52.970;6.954;2023-03-13T06:24:34;11.40;99.90
60353;DHT22;46196;52.970;6.954;2023-03-13T06:26:59;11.40;99.90
60353;DHT22;46196;52.970;6.954;2023-03-13T06:29:25;11.50;99.90
60353;DHT22;46196;52.970;6.954;2023-03-13T06:31:51;11.60;99.90
60353;DHT22;46196;52.970;6.954;2023-03-13T06:34:17;11.60;99.90
60353;DHT22;46196;52.970;6.954;2023-03-13T06:36:43;11.70;99.90
60353;DHT22;46196;52.970;6.954;2023-03-13T06:39:11;11.80;99.90
60353;DHT22;46196;52.970;6.954;2023-03-13T06:41:37;11.80;99.90
60353;DHT22;46196;52.970;6.954;2023-03-13T06:44:03;11.80;99.90
60353;DHT22;46196;52.970;6.954;2023-03-13T06:46:29;11.90;99.90
60353;DHT22;46196;52.970;6.954;2023-03-13T06:48:57;11.90;99.90
60353;DHT22;46196;52.970;6.954;2023-03-13T06:51:23;11.90;99.90
60353;DHT22;46196;52.970;6.954;2023-03-13T06:53:50;11.90;99.90
60353;DHT22;46196;52.970;6.954;2023-03-13T06:56:17;12.00;99.90
60353;DHT22;46196;52.970;6.954;2023-03-13T06:58:46;12.00;99.90
60353;DHT22;46196;52.970;6.954;2023-03-13T07:01:13;11.90;99.90
60353;DHT22;46196;52.970;6.954;2023-03-13T07:03:39;12.20;99.90
60353;DHT22;46196;52.970;6.954;2023-03-13T07:06:06;12.00;99.90
60353;DHT22;46196;52.970;6.954;2023-03-13T07:08:33;12.10;99.90
60353;DHT22;46196;52.970;6.954;2023-03-13T07:11:05;12.10;99.90
60353;DHT22;46196;52.970;6.954;2023-03-13T07:13:31;12.20;99.90
60353;DHT22;46196;52.970;6.954;2023-03-13T07:16:02;12.30;99.90
60353;DHT22;46196;52.970;6.954;2023-03-13T07:18:31;12.40;99.90
60353;DHT22;46196;52.970;6.954;2023-03-13T07:20:59;12.40;99.90
60353;DHT22;46196;52.970;6.954;2023-03-13T07:23:26;12.40;99.90
60353;DHT22;46196;52.970;6.954;2023-03-13T07:25:57;12.40;99.90
60353;DHT22;46196;52.970;6.954;2023-03-13T07:28:24;12.50;99.90
60353;DHT22;46196;52.970;6.954;2023-03-13T07:30:51;12.40;99.90
60353;DHT22;46196;52.970;6.954;2023-03-13T07:33:17;12.40;99.90
60353;DHT22;46196;52.970;6.954;2023-03-13T07:35:50;12.30;99.90
60353;DHT22;46196;52.970;6.954;2023-03-13T07:38:17;12.20;99.90
60353;DHT22;46196;52.970;6.954;2023-03-13T07:40:54;12.20;99.90
60353;DHT22;46196;52.970;6.954;2023-03-13T07:43:20;12.30;99.90
60353;DHT22;46196;52.970;6.954;2023-03-13T07:45:55;12.30;99.90
60353;DHT22;46196;52.970;6.954;2023-03-13T07:48:21;12.30;99.90
60353;DHT22;46196;52.970;6.954;2023-03-13T07:50:47;12.40;99.90
60353;DHT22;46196;52.970;6.954;2023-03-13T07:53:14;12.40;99.90
60353;DHT22;46196;52.970;6.954;2023-03-13T07:56:06;12.50;99.90
60353;DHT22;46196;52.970;6.954;2023-03-13T07:58:34;12.50;99.90
60353;DHT22;46196;52.970;6.954;2023-03-13T08:01:06;12.60;99.90
60353;DHT22;46196;52.970;6.954;2023-03-13T08:03:32;12.60;99.90
60353;DHT22;46196;52.970;6.954;2023-03-13T08:06:04;12.70;99.90
60353;DHT22;46196;52.970;6.954;2023-03-13T08:08:30;12.70;99.90
60353;DHT22;46196;52.970;6.954;2023-03-13T08:11:01;12.70;99.90
60353;DHT22;46196;52.970;6.954;2023-03-13T08:13:27;12.70;99.90
60353;DHT22;46196;52.970;6.954;2023-03-13T08:16:05;12.70;99.90
60353;DHT22;46196;52.970;6.954;2023-03-13T08:18:31;12.70;99.90
60353;DHT22;46196;52.970;6.954;2023-03-13T08:21:04;12.70;99.90
60353;DHT22;46196;52.970;6.954;2023-03-13T08:23:31;12.70;99.90
60353;DHT22;46196;52.970;6.954;2023-03-13T08:26:08;12.60;99.90
60353;DHT22;46196;52.970;6.954;2023-03-13T08:28:35;12.60;99.90
60353;DHT22;46196;52.970;6.954;2023-03-13T08:31:12;12.40;99.90
60353;DHT22;46196;52.970;6.954;2023-03-13T08:33:40;12.30;99.90
60353;DHT22;46196;52.970;6.954;2023-03-13T08:36:19;12.30;99.90
60353;DHT22;46196;52.970;6.954;2023-03-13T08:38:46;12.30;99.90
60353;DHT22;46196;52.970;6.954;2023-03-13T08:41:17;12.30;99.90
60353;DHT22;46196;52.970;6.954;2023-03-13T08:43:44;12.40;99.90
60353;DHT22;46196;52.970;6.954;2023-03-13T08:46:10;12.40;99.90
60353;DHT22;46196;52.970;6.954;2023-03-13T08:48:36;12.40;99.90
60353;DHT22;46196;52.970;6.954;2023-03-13T08:51:22;12.40;99.90
60353;DHT22;46196;52.970;6.954;2023-03-13T08:53:49;12.50;99.90
60353;DHT22;46196;52.970;6.954;2023-03-13T08:56:16;12.60;99.90
60353;DHT22;46196;52.970;6.954;2023-03-13T08:58:43;12.50;99.90
60353;DHT22;46196;52.970;6.954;2023-03-13T09:01:11;12.60;99.90
60353;DHT22;46196;52.970;6.954;2023-03-13T09:03:38;12.60;99.90
60353;DHT22;46196;52.970;6.954;2023-03-13T09:06:04;12.70;99.90
60353;DHT22;46196;52.970;6.954;2023-03-13T09:08:31;12.70;99.90
60353;DHT22;46196;52.970;6.954;2023-03-13T09:11:02;12.70;99.90
60353;DHT22;46196;52.970;6.954;2023-03-13T09:13:30;12.80;99.90
60353;DHT22;46196;52.970;6.954;2023-03-13T09:16:04;12.90;99.90
60353;DHT22;46196;52.970;6.954;2023-03-13T09:18:31;13.10;99.90
60353;DHT22;46196;52.970;6.954;2023-03-13T09:20:57;13.20;99.90
60353;DHT22;46196;52.970;6.954;2023-03-13T09:23:23;13.30;99.90
60353;DHT22;46196;52.970;6.954;2023-03-13T09:25:52;13.30;99.90
60353;DHT22;46196;52.970;6.954;2023-03-13T09:28:18;13.30;99.90
60353;DHT22;46196;52.970;6.954;2023-03-13T09:30:44;13.30;99.90
60353;DHT22;46196;52.970;6.954;2023-03-13T09:33:10;13.30;99.90
60353;DHT22;46196;52.970;6.954;2023-03-13T09:35:39;13.30;99.90
60353;DHT22;46196;52.970;6.954;2023-03-13T09:38:05;13.40;99.90
60353;DHT22;46196;52.970;6.954;2023-03-13T09:40:40;13.40;99.90
60353;DHT22;46196;52.970;6.954;2023-03-13T09:45:56;13.30;99.90
60353;DHT22;46196;52.970;6.954;2023-03-13T09:48:36;13.30;99.90
60353;DHT22;46196;52.970;6.954;2023-03-13T09:56:21;13.20;99.90
60353;DHT22;46196;52.970;6.954;2023-03-13T09:58:58;13.20;99.90
60353;DHT22;46196;52.970;6.954;2023-03-13T10:01:29;13.30;99.90
60353;DHT22;46196;52.970;6.954;2023-03-13T10:04:00;13.30;99.90
60353;DHT22;46196;52.970;6.954;2023-03-13T10:06:34;13.30;99.90
60353;DHT22;46196;52.970;6.954;2023-03-13T10:09:01;13.50;99.90
60353;DHT22;46196;52.970;6.954;2023-03-13T10:11:39;13.50;99.90
60353;DHT22;46196;52.970;6.954;2023-03-13T10:14:12;13.50;99.90
60353;DHT22;46196;52.970;6.954;2023-03-13T10:17:06;13.60;99.90
60353;DHT22;46196;52.970;6.954;2023-03-13T10:19:37;12.50;99.90
60353;DHT22;46196;52.970;6.954;2023-03-13T10:22:15;13.70;99.90
60353;DHT22;46196;52.970;6.954;2023-03-13T10:24:50;13.70;99.90
60353;DHT22;46196;52.970;6.954;2023-03-13T10:27:18;13.80;99.90
60353;DHT22;46196;52.970;6.954;2023-03-13T10:29:44;13.90;99.90
60353;DHT22;46196;52.970;6.954;2023-03-13T10:32:13;14.00;99.90
60353;DHT22;46196;52.970;6.954;2023-03-13T10:34:54;14.00;99.90
60353;DHT22;46196;52.970;6.954;2023-03-13T10:39:52;14.00;99.90
60353;DHT22;46196;52.970;6.954;2023-03-13T10:42:26;14.00;99.90
60353;DHT22;46196;52.970;6.954;2023-03-13T10:45:00;14.00;99.90
60353;DHT22;46196;52.970;6.954;2023-03-13T10:47:32;14.00;99.90
60353;DHT22;46196;52.970;6.954;2023-03-13T10:49:59;14.10;99.90
60353;DHT22;46196;52.970;6.954;2023-03-13T10:52:45;14.10;99.90
60353;DHT22;46196;52.970;6.954;2023-03-13T10:55:20;14.10;99.90
60353;DHT22;46196;52.970;6.954;2023-03-13T10:58:03;14.10;99.90
60353;DHT22;46196;52.970;6.954;2023-03-13T11:00:39;14.10;99.90
60353;DHT22;46196;52.970;6.954;2023-03-13T11:03:22;14.20;99.90
60353;DHT22;46196;52.970;6.954;2023-03-13T11:05:57;14.20;99.90
60353;DHT22;46196;52.970;6.954;2023-03-13T11:08:26;14.20;99.90
60353;DHT22;46196;52.970;6.954;2023-03-13T11:11:00;14.30;99.90
60353;DHT22;46196;52.970;6.954;2023-03-13T11:13:45;14.40;99.90
60353;DHT22;46196;52.970;6.954;2023-03-13T11:16:27;14.50;99.90
60353;DHT22;46196;52.970;6.954;2023-03-13T11:22:06;14.60;99.90
60353;DHT22;46196;52.970;6.954;2023-03-13T11:32:23;14.70;99.90
60353;DHT22;46196;52.970;6.954;2023-03-13T11:34:54;14.70;99.90
60353;DHT22;46196;52.970;6.954;2023-03-13T11:37:24;14.70;99.90
60353;DHT22;46196;52.970;6.954;2023-03-13T11:40:02;13.90;99.90
60353;DHT22;46196;52.970;6.954;2023-03-13T11:48:57;17.50;99.90
60353;DHT22;46196;52.970;6.954;2023-03-13T11:54:43;15.50;99.90
60353;DHT22;46196;52.970;6.954;2023-03-13T11:57:29;15.60;99.90
60353;DHT22;46196;52.970;6.954;2023-03-13T12:00:36;15.70;99.90
60353;DHT22;46196;52.970;6.954;2023-03-13T12:03:28;15.90;99.90
60353;DHT22;46196;52.970;6.954;2023-03-13T12:05:59;16.10;99.90
60353;DHT22;46196;52.970;6.954;2023-03-13T12:18:48;16.30;99.90
60353;DHT22;46196;52.970;6.954;2023-03-13T12:21:31;16.80;99.90
60353;DHT22;46196;52.970;6.954;2023-03-13T12:29:36;17.00;99.90
60353;DHT22;46196;52.970;6.954;2023-03-13T12:40:36;17.70;99.90
60353;DHT22;46196;52.970;6.954;2023-03-13T12:43:13;16.80;99.90
60353;DHT22;46196;52.970;6.954;2023-03-13T12:56:42;16.80;99.90
60353;DHT22;46196;52.970;6.954;2023-03-13T12:59:20;16.90;99.90
60353;DHT22;46196;52.970;6.954;2023-03-13T13:01:50;16.90;99.90
60353;DHT22;46196;52.970;6.954;2023-03-13T13:04:23;17.00;99.90
60353;DHT22;46196;52.970;6.954;2023-03-13T13:07:19;17.00;99.90
60353;DHT22;46196;52.970;6.954;2023-03-13T13:12:40;16.80;99.90
60353;DHT22;46196;52.970;6.954;2023-03-13T13:15:23;16.60;99.90
60353;DHT22;46196;52.970;6.954;2023-03-13T13:18:12;16.30;99.90
60353;DHT22;46196;52.970;6.954;2023-03-13T13:20:47;16.20;99.90
60353;DHT22;46196;52.970;6.954;2023-03-13T13:23:26;16.20;99.90
60353;DHT22;46196;52.970;6.954;2023-03-13T13:25:55;16.30;99.90
60353;DHT22;46196;52.970;6.954;2023-03-13T13:28:31;16.30;99.90
60353;DHT22;46196;52.970;6.954;2023-03-13T13:30:58;16.40;99.90
60353;DHT22;46196;52.970;6.954;2023-03-13T13:36:26;17.00;99.90
60353;DHT22;46196;52.970;6.954;2023-03-13T13:38:53;17.20;99.90
60353;DHT22;46196;52.970;6.954;2023-03-13T13:43:47;17.30;99.90
60353;DHT22;46196;52.970;6.954;2023-03-13T13:46:30;17.40;99.90
60353;DHT22;46196;52.970;6.954;2023-03-13T13:51:31;17.40;99.90
60353;DHT22;46196;52.970;6.954;2023-03-13T13:54:03;17.30;99.90
60353;DHT22;46196;52.970;6.954;2023-03-13T13:56:37;17.20;99.90
60353;DHT22;46196;52.970;6.954;2023-03-13T14:02:14;16.90;99.90
60353;DHT22;46196;52.970;6.954;2023-03-13T14:04:54;16.70;99.90
60353;DHT22;46196;52.970;6.954;2023-03-13T14:07:30;16.50;99.90
60353;DHT22;46196;52.970;6.954;2023-03-13T14:10:16;16.40;99.90
60353;DHT22;46196;52.970;6.954;2023-03-13T14:12:55;16.40;99.90
60353;DHT22;46196;52.970;6.954;2023-03-13T14:15:23;17.00;99.90
60353;DHT22;46196;52.970;6.954;2023-03-13T14:17:51;16.40;99.90
60353;DHT22;46196;52.970;6.954;2023-03-13T14:20:33;16.40;99.90
60353;DHT22;46196;52.970;6.954;2023-03-13T14:23:08;16.50;99.90
60353;DHT22;46196;52.970;6.954;2023-03-13T14:28:25;16.60;99.90
60353;DHT22;46196;52.970;6.954;2023-03-13T14:30:53;16.70;99.90
60353;DHT22;46196;52.970;6.954;2023-03-13T14:33:19;16.50;99.90
60353;DHT22;46196;52.970;6.954;2023-03-13T14:35:46;16.50;99.90
60353;DHT22;46196;52.970;6.954;2023-03-13T14:38:26;16.60;99.90
60353;DHT22;46196;52.970;6.954;2023-03-13T14:40:53;16.40;99.90
60353;DHT22;46196;52.970;6.954;2023-03-13T14:43:35;16.40;99.90
60353;DHT22;46196;52.970;6.954;2023-03-13T14:46:34;16.20;99.90
60353;DHT22;46196;52.970;6.954;2023-03-13T14:49:26;16.10;99.90
60353;DHT22;46196;52.970;6.954;2023-03-13T14:54:34;16.00;99.90
60353;DHT22;46196;52.970;6.954;2023-03-13T14:57:14;15.90;99.90
60353;DHT22;46196;52.970;6.954;2023-03-13T14:59:41;15.80;99.90
60353;DHT22;46196;52.970;6.954;2023-03-13T15:02:22;17.40;99.90
60353;DHT22;46196;52.970;6.954;2023-03-13T15:05:03;16.00;99.90
60353;DHT22;46196;52.970;6.954;2023-03-13T15:07:47;16.10;99.90
60353;DHT22;46196;52.970;6.954;2023-03-13T15:12:51;16.10;99.90
60353;DHT22;46196;52.970;6.954;2023-03-13T15:15:17;16.00;99.90
60353;DHT22;46196;52.970;6.954;2023-03-13T15:17:43;16.00;99.90
60353;DHT22;46196;52.970;6.954;2023-03-13T15:20:12;15.90;99.90
60353;DHT22;46196;52.970;6.954;2023-03-13T15:22:39;15.80;99.90
60353;DHT22;46196;52.970;6.954;2023-03-13T15:25:17;15.60;99.90
60353;DHT22;46196;52.970;6.954;2023-03-13T15:27:43;15.50;99.90
60353;DHT22;46196;52.970;6.954;2023-03-13T15:30:14;14.50;99.90
60353;DHT22;46196;52.970;6.954;2023-03-13T15:32:41;15.40;99.90
60353;DHT22;46196;52.970;6.954;2023-03-13T15:37:48;15.30;99.90
60353;DHT22;46196;52.970;6.954;2023-03-13T15:40:15;15.30;99.90
60353;DHT22;46196;52.970;6.954;2023-03-13T15:42:42;14.90;99.90
60353;DHT22;46196;52.970;6.954;2023-03-13T15:45:08;15.40;99.90
60353;DHT22;46196;52.970;6.954;2023-03-13T15:47:34;15.40;99.90
60353;DHT22;46196;52.970;6.954;2023-03-13T15:50:00;15.30;99.90
60353;DHT22;46196;52.970;6.954;2023-03-13T15:52:27;15.30;99.90
60353;DHT22;46196;52.970;6.954;2023-03-13T15:54:52;15.30;99.90
60353;DHT22;46196;52.970;6.954;2023-03-13T15:57:21;15.30;99.90
60353;DHT22;46196;52.970;6.954;2023-03-13T15:59:48;15.50;99.90
60353;DHT22;46196;52.970;6.954;2023-03-13T16:02:16;15.40;99.90
60353;DHT22;46196;52.970;6.954;2023-03-13T16:04:43;15.20;99.90
60353;DHT22;46196;52.970;6.954;2023-03-13T16:07:16;15.10;99.90
60353;DHT22;46196;52.970;6.954;2023-03-13T16:09:43;15.20;99.90
60353;DHT22;46196;52.970;6.954;2023-03-13T16:12:10;15.10;99.90
60353;DHT22;46196;52.970;6.954;2023-03-13T16:14:36;15.10;99.90
60353;DHT22;46196;52.970;6.954;2023-03-13T16:17:09;15.00;99.90
60353;DHT22;46196;52.970;6.954;2023-03-13T16:19:36;15.00;99.90
60353;DHT22;46196;52.970;6.954;2023-03-13T16:22:02;14.90;99.90
60353;DHT22;46196;52.970;6.954;2023-03-13T16:24:28;14.90;99.90
60353;DHT22;46196;52.970;6.954;2023-03-13T16:26:53;14.80;99.90
60353;DHT22;46196;52.970;6.954;2023-03-13T16:29:19;14.70;99.90
60353;DHT22;46196;52.970;6.954;2023-03-13T16:31:45;14.70;99.90
60353;DHT22;46196;52.970;6.954;2023-03-13T16:34:11;14.60;99.90
60353;DHT22;46196;52.970;6.954;2023-03-13T16:36:37;14.50;99.90
60353;DHT22;46196;52.970;6.954;2023-03-13T16:39:05;14.30;99.90
60353;DHT22;46196;52.970;6.954;2023-03-13T16:41:33;14.20;99.90
60353;DHT22;46196;52.970;6.954;2023-03-13T16:44:00;14.20;99.90
60353;DHT22;46196;52.970;6.954;2023-03-13T16:46:38;14.10;99.90
60353;DHT22;46196;52.970;6.954;2023-03-13T16:49:06;14.00;99.90
60353;DHT22;46196;52.970;6.954;2023-03-13T16:51:33;14.00;99.90
60353;DHT22;46196;52.970;6.954;2023-03-13T16:53:59;14.00;99.90
60353;DHT22;46196;52.970;6.954;2023-03-13T16:56:31;14.00;99.90
60353;DHT22;46196;52.970;6.954;2023-03-13T16:59:00;13.80;99.90
60353;DHT22;46196;52.970;6.954;2023-03-13T17:01:26;15.70;99.90
60353;DHT22;46196;52.970;6.954;2023-03-13T17:03:53;13.70;99.90
60353;DHT22;46196;52.970;6.954;2023-03-13T17:06:23;13.60;99.90
60353;DHT22;46196;52.970;6.954;2023-03-13T17:08:50;13.60;99.90
60353;DHT22;46196;52.970;6.954;2023-03-13T17:11:17;14.20;99.90
60353;DHT22;46196;52.970;6.954;2023-03-13T17:13:45;13.40;99.90
60353;DHT22;46196;52.970;6.954;2023-03-13T17:16:14;13.30;99.90
60353;DHT22;46196;52.970;6.954;2023-03-13T17:18:41;13.30;99.90
60353;DHT22;46196;52.970;6.954;2023-03-13T17:21:13;13.20;99.90
60353;DHT22;46196;52.970;6.954;2023-03-13T17:23:39;13.10;99.90
60353;DHT22;46196;52.970;6.954;2023-03-13T17:26:14;13.60;99.90
60353;DHT22;46196;52.970;6.954;2023-03-13T17:28:41;11.20;99.90
60353;DHT22;46196;52.970;6.954;2023-03-13T17:31:09;13.00;99.90
60353;DHT22;46196;52.970;6.954;2023-03-13T17:33:35;12.90;99.90
60353;DHT22;46196;52.970;6.954;2023-03-13T17:36:05;11.80;99.90
60353;DHT22;46196;52.970;6.954;2023-03-13T17:38:34;14.40;99.90
60353;DHT22;46196;52.970;6.954;2023-03-13T17:41:00;12.80;99.90
60353;DHT22;46196;52.970;6.954;2023-03-13T17:43:26;12.80;99.90